Station: EBLG - 19/09/2020 08:50Z (il y a 11 minutes)
EBLG 190850Z 16005KT 120V180 CAVOK 20/10 Q1018 NOSIG
Vent du 160º - 5 kt (vent de direction variable de 120º à 180º)
Visibilité > 10 km et plafond haut ou pas de nuages significatifs
Température: +20ºC - Point de rosée: +10ºC - QNH: 1018 hPa
Pas de changement significatif prévu dans les 2 heures qui suivent l'observation